Time;durP1;ratioP1;P1;durP2;ratioP2;P2;SDS_P1;SDS_P2;PMS_P1;PMS_P2;Temp;Humidity;BMP_temperature;BMP_pressure;BME280_temperature;BME280_humidity;BME280_pressure;Samples;Min_cycle;Max_cycle;Signal;HPM_P1;HPM_P2
2023/05/18 00:02:14;;;;;;;6.97;2.00;;;9.00;99.90;;;;;;5087092;28;20031;-85
2023/05/18 00:04:40;;;;;;;5.55;1.85;;;9.10;99.90;;;;;;5078213;28;20491;-84
2023/05/18 00:07:06;;;;;;;7.00;1.98;;;8.90;99.90;;;;;;5071164;28;20036;-85
2023/05/18 00:09:39;;;;;;;6.20;1.98;;;9.10;99.90;;;;;;5085614;28;20051;-84
2023/05/18 00:12:14;;;;;;;10.32;2.20;;;8.90;99.90;;;;;;5074227;28;20046;-85
2023/05/18 00:14:49;;;;;;;6.78;2.10;;;8.90;99.90;;;;;;5077990;28;20044;-85
2023/05/18 00:17:26;;;;;;;6.82;1.88;;;9.50;99.90;;;;;;5078814;28;20048;-85
2023/05/18 00:19:59;;;;;;;4.68;1.90;;;8.80;99.90;;;;;;5100640;28;20186;-84
2023/05/18 00:22:38;;;;;;;4.60;2.00;;;9.00;99.90;;;;;;5079107;28;20522;-85
2023/05/18 00:25:09;;;;;;;7.40;1.83;;;8.70;99.90;;;;;;5076950;28;20046;-85
2023/05/18 00:27:35;;;;;;;10.05;2.50;;;8.70;99.90;;;;;;5071842;28;20047;-84
2023/05/18 00:30:05;;;;;;;4.85;1.90;;;8.90;99.90;;;;;;5095774;28;20044;-85
2023/05/18 00:32:47;;;;;;;4.28;1.60;;;8.70;99.90;;;;;;5071308;28;20548;-85
2023/05/18 00:35:18;;;;;;;5.55;1.45;;;8.80;99.90;;;;;;5092907;28;20044;-85
2023/05/18 00:37:58;;;;;;;4.88;1.95;;;8.90;99.90;;;;;;5088433;28;20028;-85
2023/05/18 00:40:35;;;;;;;5.00;1.70;;;8.90;99.90;;;;;;5076790;28;20052;-85
2023/05/18 00:43:04;;;;;;;4.82;1.63;;;8.90;99.90;;;;;;5072766;28;20380;-85
2023/05/18 00:45:41;;;;;;;4.65;1.65;;;8.90;99.90;;;;;;5075754;28;20515;-84
2023/05/18 00:48:15;;;;;;;5.35;1.58;;;8.20;99.90;;;;;;5076158;28;20495;-85
2023/05/18 00:51:06;;;;;;;6.28;1.55;;;8.50;99.90;;;;;;5082436;28;20090;-85
2023/05/18 00:53:35;;;;;;;5.55;1.70;;;8.80;99.90;;;;;;5084766;28;20402;-85
2023/05/18 00:56:09;;;;;;;4.72;1.90;;;8.50;99.90;;;;;;5082492;28;20507;-85
2023/05/18 00:58:41;;;;;;;4.50;1.80;;;8.40;99.90;;;;;;5056841;22;20037;-85
2023/05/18 01:01:10;;;;;;;6.40;2.00;;;8.20;99.90;;;;;;5035703;28;20462;-84
2023/05/18 01:03:43;;;;;;;5.07;1.90;;;8.50;99.90;;;;;;5027374;28;20056;-85
2023/05/18 01:06:18;;;;;;;4.30;1.38;;;8.60;99.90;;;;;;5029285;28;20507;-85
2023/05/18 01:08:48;;;;;;;7.68;2.13;;;8.60;99.90;;;;;;5035069;28;20078;-85
2023/05/18 01:11:39;;;;;;;5.78;1.77;;;8.40;99.90;;;;;;5066035;28;20075;-84
2023/05/18 01:14:21;;;;;;;5.65;1.48;;;8.00;99.90;;;;;;5041000;28;20056;-84
2023/05/18 01:17:44;;;;;;;5.43;1.60;;;8.10;99.90;;;;;;5048164;28;20072;-85
2023/05/18 01:21:00;;;;;;;4.10;1.73;;;8.10;99.90;;;;;;5046792;28;20047;-85
2023/05/18 01:23:43;;;;;;;5.00;1.50;;;8.30;99.90;;;;;;5050848;28;20120;-85
2023/05/18 01:26:28;;;;;;;5.50;1.67;;;8.70;99.90;;;;;;5044393;28;20090;-85
2023/05/18 01:29:03;;;;;;;5.50;1.95;;;8.10;99.90;;;;;;5062107;28;20111;-85
2023/05/18 01:31:46;;;;;;;9.82;2.25;;;8.60;99.90;;;;;;5056709;28;20052;-85
2023/05/18 01:34:14;;;;;;;6.40;1.65;;;8.80;99.90;;;;;;5061010;28;20056;-85
2023/05/18 01:36:55;;;;;;;;;;;;;;;;;;;;;
2023/05/18 01:39:31;;;;;;;6.47;2.00;;;8.10;99.90;;;;;;5066893;28;20119;-85
2023/05/18 01:42:13;;;;;;;5.65;1.80;;;8.20;99.90;;;;;;5043664;28;20105;-84
2023/05/18 01:44:56;;;;;;;5.20;1.52;;;8.30;99.90;;;;;;5036044;28;20032;-84
2023/05/18 01:47:33;;;;;;;6.80;2.17;;;8.20;99.90;;;;;;5048450;28;20040;-85
2023/05/18 01:50:24;;;;;;;5.45;2.15;;;8.70;99.90;;;;;;5042961;28;20044;-84
2023/05/18 01:52:58;;;;;;;6.40;1.52;;;8.20;99.90;;;;;;5057680;28;20036;-84
2023/05/18 01:55:29;;;;;;;7.50;2.05;;;9.00;99.90;;;;;;5049197;28;20634;-84
2023/05/18 01:58:25;;;;;;;5.85;1.60;;;8.20;99.90;;;;;;5063865;28;20036;-85
2023/05/18 02:01:23;;;;;;;;;;;;;;;;;;;;;
2023/05/18 02:03:54;;;;;;;6.97;1.65;;;8.20;99.90;;;;;;5058071;28;20128;-84
2023/05/18 02:06:38;;;;;;;6.20;1.77;;;8.60;99.90;;;;;;5046349;28;20049;-85
2023/05/18 02:09:18;;;;;;;7.90;1.90;;;8.10;99.90;;;;;;5060558;28;20105;-85
2023/05/18 02:12:05;;;;;;;7.35;1.80;;;8.60;99.90;;;;;;5055356;28;20045;-85
2023/05/18 02:14:36;;;;;;;4.82;1.50;;;8.00;99.90;;;;;;5037359;28;20044;-85
2023/05/18 02:20:00;;;;;;;4.43;1.80;;;7.70;99.90;;;;;;5079963;22;20041;-85
2023/05/18 02:22:46;;;;;;;5.68;1.77;;;8.30;99.90;;;;;;5003682;28;20036;-85
2023/05/18 02:28:38;;;;;;;5.25;1.90;;;8.30;99.90;;;;;;4994233;28;20109;-85
2023/05/18 02:31:29;;;;;;;3.95;1.75;;;8.80;99.90;;;;;;4998313;28;20046;-84
2023/05/18 02:34:04;;;;;;;5.45;1.98;;;8.40;99.90;;;;;;5013854;28;20029;-85
2023/05/18 02:36:52;;;;;;;3.28;1.55;;;8.40;99.90;;;;;;5024212;28;20489;-85
2023/05/18 02:39:32;;;;;;;4.18;1.73;;;8.30;99.90;;;;;;5015886;28;20037;-85
2023/05/18 02:42:18;;;;;;;5.95;1.70;;;8.80;99.90;;;;;;5009447;28;20041;-84
2023/05/18 02:45:32;;;;;;;5.82;1.52;;;8.20;99.90;;;;;;5027091;28;20504;-85
2023/05/18 02:48:41;;;;;;;7.35;1.63;;;8.30;99.90;;;;;;5001456;28;20419;-85
2023/05/18 02:51:28;;;;;;;7.05;1.77;;;8.10;99.90;;;;;;5006387;28;20508;-84
2023/05/18 02:54:00;;;;;;;;;;;8.30;99.90;;;;;;4997584;28;20041;-84
2023/05/18 02:56:44;;;;;;;8.18;1.88;;;8.80;99.90;;;;;;5012722;28;19925;-84
2023/05/18 02:59:32;;;;;;;4.53;1.65;;;8.30;99.90;;;;;;5012962;28;20045;-85
2023/05/18 03:02:03;;;;;;;7.57;2.30;;;8.90;99.90;;;;;;4997718;28;20069;-84
2023/05/18 03:04:38;;;;;;;5.13;1.50;;;8.30;99.90;;;;;;5004893;28;20073;-84
2023/05/18 03:07:29;;;;;;;6.25;1.85;;;8.80;99.90;;;;;;5006372;28;20124;-85
2023/05/18 03:10:18;;;;;;;9.55;2.08;;;8.20;99.90;;;;;;5003530;28;20049;-85
2023/05/18 03:12:55;;;;;;;5.63;1.95;;;7.70;99.90;;;;;;5007441;28;20045;-84
2023/05/18 03:15:41;;;;;;;6.00;2.22;;;8.20;99.90;;;;;;5000133;28;20140;-84
2023/05/18 03:18:23;;;;;;;4.97;1.90;;;8.40;99.90;;;;;;5004842;28;20048;-84
2023/05/18 03:21:09;;;;;;;5.75;1.63;;;8.60;99.90;;;;;;5004247;28;20048;-85
2023/05/18 03:23:35;;;;;;;3.83;1.90;;;8.20;99.90;;;;;;5001650;28;20041;-84
2023/05/18 03:26:24;;;;;;;5.65;2.10;;;8.50;99.90;;;;;;5007814;28;20068;-84
2023/05/18 03:29:57;;;;;;;3.67;1.83;;;8.50;99.90;;;;;;5015432;28;20046;-85
2023/05/18 03:32:42;;;;;;;5.22;2.05;;;8.30;99.90;;;;;;4962677;28;20054;-85
2023/05/18 03:35:55;;;;;;;3.75;1.70;;;7.80;99.90;;;;;;5017942;28;20493;-84
2023/05/18 03:38:46;;;;;;;4.88;2.00;;;8.10;99.90;;;;;;5015576;28;20084;-84
2023/05/18 03:41:45;;;;;;;4.05;2.03;;;8.30;99.90;;;;;;4996889;28;20052;-85
2023/05/18 03:44:16;;;;;;;3.85;1.92;;;8.80;99.90;;;;;;5005713;28;20045;-85
2023/05/18 03:47:28;;;;;;;4.40;1.95;;;8.40;99.90;;;;;;5024981;28;20408;-85
2023/05/18 03:50:02;;;;;;;7.07;2.13;;;8.20;99.90;;;;;;5009608;28;20053;-84
2023/05/18 03:52:52;;;;;;;5.25;1.90;;;8.00;99.90;;;;;;5001954;28;20557;-84
2023/05/18 03:55:30;;;;;;;4.15;1.85;;;8.80;99.90;;;;;;5000905;28;20071;-84
2023/05/18 03:58:05;;;;;;;5.35;1.92;;;8.00;99.90;;;;;;5028530;28;20067;-84
2023/05/18 04:04:16;;;;;;;4.28;1.92;;;8.20;99.90;;;;;;5015678;28;20045;-84
2023/05/18 04:07:09;;;;;;;4.53;2.03;;;8.50;99.90;;;;;;5016124;28;20533;-84
2023/05/18 04:09:55;;;;;;;5.97;2.05;;;8.30;99.90;;;;;;5001050;28;20081;-84
2023/05/18 04:13:12;;;;;;;11.02;2.55;;;8.30;99.90;;;;;;5004997;28;20045;-84
2023/05/18 04:15:43;;;;;;;10.40;2.30;;;8.60;99.90;;;;;;5014601;28;20045;-84
2023/05/18 04:18:35;;;;;;;6.53;2.60;;;8.10;99.90;;;;;;5023950;28;20045;-84
2023/05/18 04:21:47;;;;;;;3.67;2.03;;;8.40;99.90;;;;;;5014118;28;20409;-85
2023/05/18 04:24:25;;;;;;;4.88;2.17;;;8.30;99.90;;;;;;4988025;28;20483;-84
2023/05/18 04:27:07;;;;;;;5.03;1.90;;;8.40;99.90;;;;;;4998030;28;20050;-85
2023/05/18 04:36:18;;;;;;;5.18;1.88;;;8.30;99.90;;;;;;5059056;28;20097;-84
2023/05/18 04:39:12;;;;;;;6.47;1.80;;;8.50;99.90;;;;;;5053929;28;20076;-84
2023/05/18 04:42:01;;;;;;;3.85;1.80;;;8.60;99.90;;;;;;5058523;28;20041;-85
2023/05/18 04:44:41;;;;;;;5.38;2.00;;;9.10;99.90;;;;;;5052833;28;20045;-84
2023/05/18 04:47:30;;;;;;;8.80;2.70;;;9.30;99.90;;;;;;5051006;28;20497;-85
2023/05/18 04:50:28;;;;;;;6.95;2.03;;;8.80;99.90;;;;;;5050524;28;20036;-85
2023/05/18 04:53:07;;;;;;;7.55;2.30;;;8.10;99.90;;;;;;5046727;28;20044;-84
2023/05/18 04:55:56;;;;;;;6.07;2.20;;;8.40;99.90;;;;;;5036730;28;20046;-84
2023/05/18 04:58:46;;;;;;;8.52;2.38;;;9.30;99.90;;;;;;5063735;28;20354;-84
2023/05/18 05:04:49;;;;;;;4.07;1.95;;;9.00;99.90;;;;;;5057120;28;20055;-85
2023/05/18 05:07:23;;;;;;;4.32;2.10;;;9.00;99.90;;;;;;5059396;28;20122;-85
2023/05/18 05:09:49;;;;;;;7.45;2.47;;;8.90;99.90;;;;;;5041770;28;20339;-85
2023/05/18 05:12:15;;;;;;;7.75;2.78;;;9.10;99.90;;;;;;5033934;28;20076;-85
2023/05/18 05:14:45;;;;;;;5.72;2.03;;;9.90;99.90;;;;;;5037814;28;20510;-85
2023/05/18 05:17:14;;;;;;;7.47;2.30;;;9.00;99.90;;;;;;5048407;28;20056;-85
2023/05/18 05:19:42;;;;;;;6.47;2.10;;;9.20;99.90;;;;;;5026733;28;20051;-85
2023/05/18 05:22:14;;;;;;;5.97;2.08;;;9.30;99.90;;;;;;5033436;28;20041;-85
2023/05/18 05:24:53;;;;;;;6.43;1.92;;;9.10;99.90;;;;;;5066087;28;20048;-85
2023/05/18 05:27:24;;;;;;;7.70;2.30;;;9.70;99.90;;;;;;5049941;28;20045;-85
2023/05/18 05:29:53;;;;;;;;;;;9.70;99.90;;;;;;5035544;28;20036;-85
2023/05/18 05:32:28;;;;;;;5.78;1.90;;;9.60;99.90;;;;;;5046905;28;19921;-86
2023/05/18 05:34:53;;;;;;;5.38;2.20;;;9.40;99.90;;;;;;5034918;28;20044;-84
2023/05/18 05:39:51;;;;;;;7.10;2.47;;;9.50;99.90;;;;;;5080729;22;20505;-85
2023/05/18 05:42:20;;;;;;;4.85;1.52;;;9.50;99.90;;;;;;5015596;28;20045;-84
2023/05/18 05:47:58;;;;;;;5.80;1.90;;;10.40;99.90;;;;;;5008320;28;20114;-84
2023/05/18 05:50:23;;;;;;;4.95;1.98;;;9.80;99.90;;;;;;4988242;28;20052;-84
2023/05/18 05:52:52;;;;;;;5.97;2.10;;;10.50;99.90;;;;;;4990119;28;20043;-84
2023/05/18 05:55:18;;;;;;;5.03;2.13;;;9.80;99.90;;;;;;4994613;28;20044;-84
2023/05/18 05:57:43;;;;;;;8.38;2.15;;;10.20;99.90;;;;;;4992365;28;20030;-84
2023/05/18 06:00:11;;;;;;;7.07;1.95;;;9.80;99.90;;;;;;5013648;28;20417;-86
2023/05/18 06:02:38;;;;;;;7.22;1.90;;;9.90;99.90;;;;;;4996267;28;20041;-84
2023/05/18 06:05:15;;;;;;;8.82;2.13;;;9.90;99.90;;;;;;4996886;28;20033;-85
2023/05/18 06:07:40;;;;;;;5.53;1.88;;;9.90;99.90;;;;;;4991507;28;20037;-84
2023/05/18 06:10:07;;;;;;;7.03;2.13;;;9.90;99.90;;;;;;4996721;28;20390;-85
2023/05/18 06:12:50;;;;;;;5.57;1.92;;;9.90;99.90;;;;;;4992784;28;20411;-85
2023/05/18 06:15:17;;;;;;;6.22;1.60;;;9.70;99.90;;;;;;5008645;28;20045;-84
2023/05/18 06:17:42;;;;;;;8.27;2.33;;;10.10;99.90;;;;;;4995709;28;20537;-84
2023/05/18 06:20:09;;;;;;;7.47;2.10;;;10.10;99.90;;;;;;4993044;28;20120;-85
2023/05/18 06:22:37;;;;;;;6.53;1.75;;;10.00;99.90;;;;;;4999144;28;20037;-85
2023/05/18 06:25:03;;;;;;;5.85;1.73;;;10.50;99.90;;;;;;5014545;28;20052;-85
2023/05/18 06:27:28;;;;;;;6.72;1.90;;;10.10;99.90;;;;;;4996129;28;20041;-84
2023/05/18 06:29:54;;;;;;;6.68;1.73;;;10.00;99.90;;;;;;5012228;28;20052;-84
2023/05/18 06:32:20;;;;;;;5.18;2.08;;;10.00;99.90;;;;;;5011717;28;20041;-83
2023/05/18 06:34:46;;;;;;;6.32;1.55;;;10.00;99.90;;;;;;4997800;28;20033;-84
2023/05/18 06:37:11;;;;;;;7.30;2.22;;;10.00;99.90;;;;;;4997645;28;20091;-85
2023/05/18 06:39:40;;;;;;;8.23;2.10;;;9.90;99.90;;;;;;5012980;28;20103;-84
2023/05/18 06:42:06;;;;;;;6.78;2.05;;;10.50;99.90;;;;;;5013982;28;20041;-84
2023/05/18 06:44:34;;;;;;;7.50;1.65;;;10.00;99.90;;;;;;5031805;28;20037;-85
2023/05/18 06:46:59;;;;;;;7.93;2.08;;;10.10;99.90;;;;;;5013082;28;20049;-85
2023/05/18 06:49:27;;;;;;;7.00;2.20;;;10.10;99.90;;;;;;5009793;28;20033;-84
2023/05/18 06:51:53;;;;;;;8.45;2.20;;;10.20;99.90;;;;;;4997510;28;20091;-85
2023/05/18 06:54:21;;;;;;;7.18;2.22;;;10.30;99.90;;;;;;4992557;28;20137;-85
2023/05/18 06:56:51;;;;;;;5.32;1.77;;;10.60;99.90;;;;;;5006387;28;20397;-85
2023/05/18 06:59:17;;;;;;;6.32;2.10;;;10.50;99.90;;;;;;4993762;28;20071;-84
2023/05/18 07:01:53;;;;;;;7.40;1.95;;;10.40;99.90;;;;;;5012464;28;20069;-84
2023/05/18 07:04:30;;;;;;;6.97;1.95;;;11.30;99.90;;;;;;4992005;28;20545;-84
2023/05/18 07:06:59;;;;;;;9.02;2.30;;;10.60;99.90;;;;;;4994256;28;20106;-85
2023/05/18 07:09:30;;;;;;;6.20;2.38;;;10.70;99.90;;;;;;5010028;28;20041;-85
2023/05/18 07:12:05;;;;;;;9.20;2.05;;;10.70;99.90;;;;;;4990907;28;20115;-84
2023/05/18 07:14:30;;;;;;;5.53;1.92;;;10.80;99.90;;;;;;4992773;28;20493;-85
2023/05/18 07:16:59;;;;;;;4.97;1.98;;;11.40;99.90;;;;;;4994975;28;20137;-84
2023/05/18 07:19:25;;;;;;;5.07;1.88;;;11.00;99.90;;;;;;4993825;28;20034;-85
2023/05/18 07:21:50;;;;;;;8.18;2.28;;;11.30;99.90;;;;;;5010261;28;20042;-85
2023/05/18 07:24:16;;;;;;;5.47;1.80;;;11.80;99.90;;;;;;5014721;28;20041;-82
2023/05/18 07:26:41;;;;;;;4.63;1.90;;;11.20;99.90;;;;;;5017905;28;20034;-83
2023/05/18 07:29:07;;;;;;;9.05;2.13;;;11.30;99.90;;;;;;5015907;28;20053;-84
2023/05/18 07:31:33;;;;;;;8.73;1.75;;;11.40;99.90;;;;;;4998324;28;20405;-85
2023/05/18 07:33:58;;;;;;;4.50;2.05;;;11.50;99.90;;;;;;4997881;28;20091;-84
2023/05/18 07:36:26;;;;;;;5.25;1.90;;;11.60;99.90;;;;;;4996952;28;20033;-84
2023/05/18 07:38:53;;;;;;;6.65;2.00;;;11.80;99.90;;;;;;4997105;28;20322;-85
2023/05/18 07:41:21;;;;;;;7.45;1.88;;;11.80;99.90;;;;;;4999639;28;20080;-84
2023/05/18 07:43:47;;;;;;;4.72;2.10;;;12.00;99.90;;;;;;5013413;28;20052;-84
2023/05/18 07:46:13;;;;;;;6.93;1.98;;;11.70;99.90;;;;;;5007027;28;20169;-84
2023/05/18 07:48:38;;;;;;;6.78;2.10;;;12.10;99.90;;;;;;5007123;28;20120;-83
2023/05/18 07:51:04;;;;;;;4.22;1.85;;;12.30;99.90;;;;;;4996829;28;20037;-85
2023/05/18 07:53:30;;;;;;;4.85;1.95;;;12.30;99.90;;;;;;5012778;28;20037;-84
2023/05/18 07:55:58;;;;;;;4.40;1.80;;;12.40;99.90;;;;;;5014498;28;20060;-84
2023/05/18 07:58:24;;;;;;;8.13;2.28;;;12.60;99.90;;;;;;4997922;28;20041;-84
2023/05/18 08:00:50;;;;;;;8.85;2.03;;;12.70;99.90;;;;;;4996246;28;20044;-84
2023/05/18 08:03:17;;;;;;;4.68;1.75;;;12.90;99.90;;;;;;4998824;28;20064;-82
2023/05/18 08:05:43;;;;;;;5.93;1.80;;;13.00;99.90;;;;;;5012472;28;20038;-81
2023/05/18 08:08:10;;;;;;;4.10;1.60;;;13.10;99.90;;;;;;4996656;28;20605;-80
2023/05/18 08:10:36;;;;;;;5.20;1.50;;;13.10;99.90;;;;;;5000228;28;20068;-82
2023/05/18 08:13:02;;;;;;;7.28;1.70;;;13.20;99.90;;;;;;5013777;28;20053;-82
2023/05/18 08:15:27;;;;;;;8.68;1.98;;;13.20;99.90;;;;;;5021573;28;20120;-83
2023/05/18 08:17:53;;;;;;;7.22;1.80;;;13.20;99.90;;;;;;5016178;28;20440;-83
2023/05/18 08:20:19;;;;;;;4.93;1.80;;;13.30;99.90;;;;;;5002668;28;20079;-81
2023/05/18 08:22:44;;;;;;;5.72;1.80;;;13.40;99.90;;;;;;5021820;28;20033;-83
2023/05/18 08:25:10;;;;;;;6.75;1.92;;;13.40;99.90;;;;;;4999198;28;20051;-82
2023/05/18 08:27:36;;;;;;;5.72;1.73;;;13.60;99.90;;;;;;5012001;28;20048;-83
2023/05/18 08:30:01;;;;;;;5.70;1.70;;;13.70;99.90;;;;;;5002298;28;20124;-83
2023/05/18 08:32:27;;;;;;;5.47;1.75;;;14.00;99.90;;;;;;5000043;28;20404;-83
2023/05/18 08:34:53;;;;;;;5.43;1.80;;;14.10;99.90;;;;;;4999692;28;20041;-84
2023/05/18 08:37:18;;;;;;;6.70;2.05;;;14.20;99.90;;;;;;4999930;28;20413;-85
2023/05/18 08:39:45;;;;;;;6.55;1.67;;;14.00;99.90;;;;;;5017109;28;20113;-85
2023/05/18 08:42:32;;;;;;;10.77;2.05;;;13.90;99.90;;;;;;5003157;28;20077;-83
2023/05/18 08:45:11;;;;;;;4.78;1.55;;;14.10;99.90;;;;;;5014491;28;20041;-83
2023/05/18 08:47:37;;;;;;;6.53;1.50;;;14.30;99.90;;;;;;5015917;28;20044;-84
2023/05/18 08:50:03;;;;;;;7.35;2.22;;;14.40;99.90;;;;;;5012103;28;20116;-85
2023/05/18 08:52:34;;;;;;;5.30;1.85;;;14.60;99.90;;;;;;4996069;28;20034;-85
2023/05/18 08:55:05;;;;;;;8.60;1.83;;;14.20;99.90;;;;;;5001271;28;20060;-82
2023/05/18 08:57:34;;;;;;;5.57;1.70;;;14.10;99.90;;;;;;5000826;28;20108;-83
2023/05/18 09:00:01;;;;;;;6.85;1.70;;;14.20;99.90;;;;;;5015993;28;20041;-84
2023/05/18 09:02:27;;;;;;;5.47;1.88;;;14.20;99.90;;;;;;5000538;28;20050;-83
2023/05/18 09:04:54;;;;;;;9.57;1.85;;;14.30;99.90;;;;;;5005829;28;20044;-83
2023/05/18 09:07:21;;;;;;;7.32;1.77;;;14.30;99.90;;;;;;4991147;28;20040;-83
2023/05/18 09:09:47;;;;;;;7.45;1.88;;;14.30;99.90;;;;;;4992561;28;20053;-84
2023/05/18 09:12:14;;;;;;;6.60;1.90;;;14.40;99.90;;;;;;5015548;28;20505;-83
2023/05/18 09:14:42;;;;;;;7.03;1.73;;;14.50;99.90;;;;;;5018119;28;20116;-84
2023/05/18 09:17:08;;;;;;;6.18;1.70;;;14.70;99.90;;;;;;4994168;28;20065;-83
2023/05/18 09:19:34;;;;;;;9.32;2.30;;;15.00;99.90;;;;;;5017734;28;20513;-81
2023/05/18 09:21:59;;;;;;;4.85;1.60;;;15.20;99.90;;;;;;5016197;28;20172;-84
2023/05/18 09:24:25;;;;;;;6.32;1.77;;;15.30;99.90;;;;;;4998665;28;20037;-84
2023/05/18 09:26:52;;;;;;;7.47;1.90;;;14.90;99.90;;;;;;4995386;28;20072;-83
2023/05/18 09:29:23;;;;;;;5.70;1.73;;;14.40;99.90;;;;;;5000110;28;20042;-79
2023/05/18 09:31:49;;;;;;;5.85;1.73;;;14.60;99.90;;;;;;5019882;28;20096;-80
2023/05/18 09:34:17;;;;;;;6.53;1.80;;;14.90;99.90;;;;;;5018057;28;20041;-80
2023/05/18 09:36:48;;;;;;;7.18;1.98;;;15.00;99.90;;;;;;5001563;28;20060;-82
2023/05/18 09:39:13;;;;;;;5.53;2.60;;;15.20;99.90;;;;;;5018220;28;20041;-80
2023/05/18 09:41:40;;;;;;;5.32;1.80;;;15.40;99.90;;;;;;5001338;28;20060;-79
2023/05/18 09:44:08;;;;;;;6.57;1.85;;;15.40;99.90;;;;;;5019136;28;20119;-83
2023/05/18 09:46:40;;;;;;;9.10;2.10;;;15.40;99.90;;;;;;4992750;28;20037;-81
2023/05/18 09:49:06;;;;;;;7.22;2.40;;;15.30;99.90;;;;;;4998979;28;20037;-81
2023/05/18 09:51:38;;;;;;;9.00;1.90;;;15.30;99.90;;;;;;5000055;28;20041;-79
2023/05/18 09:54:07;;;;;;;7.22;2.08;;;15.30;99.90;;;;;;5008372;28;20033;-81
2023/05/18 09:56:36;;;;;;;8.55;2.35;;;15.40;99.90;;;;;;5006063;28;20037;-82
2023/05/18 09:59:13;;;;;;;6.95;2.13;;;15.40;99.90;;;;;;5009842;28;20071;-82
2023/05/18 10:01:56;;;;;;;6.25;2.10;;;15.50;99.90;;;;;;4995598;28;20053;-80
2023/05/18 10:04:22;;;;;;;7.18;1.98;;;15.60;99.90;;;;;;4995524;28;20131;-80
2023/05/18 10:06:49;;;;;;;5.93;1.80;;;15.60;99.90;;;;;;5016779;28;20057;-82
2023/05/18 10:09:15;;;;;;;5.53;1.80;;;15.50;99.90;;;;;;5007832;28;20048;-83
2023/05/18 10:11:41;;;;;;;5.55;1.92;;;15.50;99.90;;;;;;5013605;28;20040;-83
2023/05/18 10:14:10;;;;;;;11.80;2.45;;;15.50;99.90;;;;;;4996558;28;20405;-81
2023/05/18 10:16:35;;;;;;;7.88;2.15;;;15.30;99.90;;;;;;5030826;28;20475;-83
2023/05/18 10:19:03;;;;;;;6.80;1.70;;;15.30;99.90;;;;;;5011722;28;20104;-84
2023/05/18 10:21:32;;;;;;;6.50;1.80;;;15.00;99.90;;;;;;5006434;28;20052;-83
2023/05/18 10:23:59;;;;;;;6.40;1.77;;;14.90;99.90;;;;;;5010184;28;20501;-83
2023/05/18 10:26:27;;;;;;;7.30;1.90;;;14.70;99.90;;;;;;5012269;28;20048;-83
2023/05/18 10:28:55;;;;;;;8.20;2.25;;;14.90;99.90;;;;;;4994829;28;20033;-80
2023/05/18 10:31:23;;;;;;;7.82;1.83;;;15.10;99.90;;;;;;4991345;28;20095;-81
2023/05/18 10:33:50;;;;;;;5.22;1.75;;;15.20;99.90;;;;;;5011480;28;20246;-84
2023/05/18 10:36:17;;;;;;;8.88;1.83;;;15.30;99.90;;;;;;5014016;28;20103;-80
2023/05/18 10:38:44;;;;;;;7.75;2.08;;;15.30;99.90;;;;;;5017713;28;20030;-81
2023/05/18 10:41:11;;;;;;;5.25;2.03;;;15.50;99.90;;;;;;5014667;28;20150;-81
2023/05/18 10:43:36;;;;;;;7.53;2.55;;;15.60;99.90;;;;;;5002541;28;20041;-80
2023/05/18 10:46:06;;;;;;;7.10;2.63;;;15.70;99.90;;;;;;5018354;28;20029;-81
2023/05/18 10:48:37;;;;;;;4.88;2.20;;;15.70;99.90;;;;;;5016996;28;20045;-81
2023/05/18 10:51:05;;;;;;;7.68;2.20;;;15.70;99.90;;;;;;5011975;28;20069;-84
2023/05/18 10:53:32;;;;;;;6.85;2.42;;;15.30;99.90;;;;;;5017017;28;20065;-80
2023/05/18 10:55:57;;;;;;;7.30;2.35;;;15.50;99.90;;;;;;5015638;28;20116;-80
2023/05/18 10:58:25;;;;;;;8.13;2.17;;;15.60;99.90;;;;;;5015393;28;20064;-82
2023/05/18 11:00:54;;;;;;;5.72;2.40;;;15.70;99.90;;;;;;5000259;28;20076;-80
2023/05/18 11:03:21;;;;;;;7.28;1.98;;;16.00;99.90;;;;;;4992824;28;20112;-84
2023/05/18 11:06:07;;;;;;;8.13;2.08;;;16.20;99.90;;;;;;5016923;28;20070;-80
2023/05/18 11:08:40;;;;;;;7.93;2.30;;;16.40;99.90;;;;;;5003868;28;20084;-81
2023/05/18 11:11:06;;;;;;;8.73;2.50;;;16.70;99.90;;;;;;5011732;28;20129;-81
2023/05/18 11:13:34;;;;;;;4.70;1.75;;;16.90;99.90;;;;;;5014686;28;20045;-80
2023/05/18 11:16:04;;;;;;;8.85;2.20;;;17.10;99.90;;;;;;5029241;28;20037;-81
2023/05/18 11:18:48;;;;;;;5.00;2.10;;;17.30;99.90;;;;;;5010307;28;20107;-78
2023/05/18 11:21:27;;;;;;;5.53;1.80;;;17.50;99.90;;;;;;5010545;28;20041;-80
2023/05/18 11:24:24;;;;;;;5.82;1.83;;;17.40;99.90;;;;;;5012769;28;20033;-80
2023/05/18 11:26:52;;;;;;;9.70;2.00;;;17.40;99.90;;;;;;5003864;28;20048;-80
2023/05/18 11:29:28;;;;;;;5.95;2.03;;;17.40;99.90;;;;;;5015049;28;20041;-79
2023/05/18 11:31:54;;;;;;;5.47;1.92;;;17.50;99.90;;;;;;5000916;28;20112;-80
2023/05/18 11:34:39;;;;;;;5.25;1.90;;;17.60;99.90;;;;;;5015656;28;20072;-80
2023/05/18 11:37:05;;;;;;;5.25;2.05;;;17.90;99.90;;;;;;5015796;28;20033;-80
2023/05/18 11:39:32;;;;;;;6.97;1.95;;;18.10;99.90;;;;;;4998551;28;20064;-80
2023/05/18 11:42:11;;;;;;;4.20;1.85;;;18.30;99.90;;;;;;5014195;28;20034;-79
2023/05/18 11:44:40;;;;;;;4.75;1.80;;;18.50;99.90;;;;;;4995523;28;20033;-79
2023/05/18 11:47:10;;;;;;;5.18;1.80;;;18.60;99.90;;;;;;4999550;28;20030;-82
2023/05/18 11:49:44;;;;;;;6.22;2.28;;;18.20;99.90;;;;;;5018828;28;20125;-82
2023/05/18 11:52:13;;;;;;;5.78;2.10;;;18.50;99.90;;;;;;5017046;28;20073;-78
2023/05/18 11:54:55;;;;;;;4.38;2.03;;;18.50;99.90;;;;;;5038109;28;20068;-79
2023/05/18 11:57:38;;;;;;;8.05;2.03;;;18.70;99.90;;;;;;5020305;28;20037;-81
2023/05/18 12:00:13;;;;;;;4.07;1.58;;;18.60;99.90;;;;;;5021193;28;20041;-79
2023/05/18 12:02:43;;;;;;;7.82;2.20;;;18.60;99.90;;;;;;5000560;28;20052;-80
2023/05/18 12:05:09;;;;;;;6.57;2.00;;;18.60;99.90;;;;;;5017905;28;20451;-77
2023/05/18 12:07:35;;;;;;;4.97;1.77;;;18.60;99.90;;;;;;5018602;28;20104;-77
2023/05/18 12:10:06;;;;;;;5.22;2.08;;;18.80;99.90;;;;;;5017048;28;20233;-78
2023/05/18 12:12:32;;;;;;;8.68;2.05;;;18.80;99.90;;;;;;4998656;28;20033;-78
2023/05/18 12:15:00;;;;;;;6.85;2.65;;;18.70;99.90;;;;;;5016760;28;20025;-79
2023/05/18 12:17:40;;;;;;;6.20;1.85;;;18.70;99.90;;;;;;5016958;28;20048;-76
2023/05/18 12:20:11;;;;;;;6.65;2.00;;;18.70;99.90;;;;;;5010300;28;20044;-76
2023/05/18 12:22:45;;;;;;;5.25;2.33;;;18.80;99.90;;;;;;5014205;28;20052;-77
2023/05/18 12:25:11;;;;;;;6.40;2.13;;;18.70;99.50;;;;;;5014848;28;20497;-76
2023/05/18 12:27:42;;;;;;;6.70;2.05;;;18.90;99.80;;;;;;5014064;28;20060;-77
2023/05/18 12:30:15;;;;;;;4.07;2.00;;;19.20;99.80;;;;;;5014502;28;20099;-78
2023/05/18 12:32:49;;;;;;;6.70;2.25;;;19.20;99.60;;;;;;5017068;28;20041;-77
2023/05/18 12:35:16;;;;;;;5.20;1.80;;;19.10;98.80;;;;;;4994546;28;20736;-78
2023/05/18 12:37:45;;;;;;;6.38;2.00;;;19.00;98.70;;;;;;5003252;28;20037;-76
2023/05/18 12:40:13;;;;;;;5.70;2.03;;;18.80;98.50;;;;;;5006143;28;20092;-77
2023/05/18 12:42:39;;;;;;;5.18;2.22;;;18.80;99.10;;;;;;5002748;28;20045;-78
2023/05/18 12:45:05;;;;;;;6.25;2.15;;;18.80;99.20;;;;;;4998860;28;20095;-78
2023/05/18 12:47:32;;;;;;;6.38;2.00;;;19.10;99.40;;;;;;4998637;28;20076;-78
2023/05/18 12:50:01;;;;;;;6.35;1.95;;;19.30;99.10;;;;;;4986464;28;20116;-77
2023/05/18 12:52:27;;;;;;;5.72;2.38;;;19.60;99.30;;;;;;5005209;28;20049;-77
2023/05/18 12:54:59;;;;;;;11.13;2.88;;;19.90;98.80;;;;;;5003943;28;20038;-78
2023/05/18 12:57:26;;;;;;;6.68;2.47;;;20.20;98.60;;;;;;5003842;28;20033;-77
2023/05/18 12:59:59;;;;;;;4.13;1.80;;;20.50;98.50;;;;;;5010129;28;20045;-76
2023/05/18 13:02:36;;;;;;;4.18;1.73;;;20.70;98.30;;;;;;5005411;28;20130;-77
2023/05/18 13:05:11;;;;;;;5.97;2.00;;;20.80;97.80;;;;;;5015241;28;20573;-78
2023/05/18 13:07:44;;;;;;;4.78;2.03;;;20.90;98.20;;;;;;5013957;28;20035;-75
2023/05/18 13:10:14;;;;;;;5.63;2.00;;;20.70;96.50;;;;;;5012537;28;20053;-75
2023/05/18 13:12:41;;;;;;;4.80;1.92;;;20.20;97.10;;;;;;5014943;28;20672;-76
2023/05/18 13:15:21;;;;;;;6.07;2.15;;;19.90;97.20;;;;;;5015214;28;20049;-76
2023/05/18 13:17:58;;;;;;;6.55;2.40;;;19.70;96.50;;;;;;5015094;28;20034;-77
2023/05/18 13:20:31;;;;;;;8.18;2.20;;;19.90;97.40;;;;;;5013754;28;20048;-77
2023/05/18 13:22:58;;;;;;;8.32;2.42;;;20.00;96.70;;;;;;5014269;28;20048;-73
2023/05/18 13:25:25;;;;;;;5.97;2.30;;;20.10;96.90;;;;;;5014083;28;20045;-75
2023/05/18 13:27:53;;;;;;;5.20;2.35;;;20.30;97.10;;;;;;5011786;28;20045;-77
2023/05/18 13:30:20;;;;;;;5.25;2.42;;;20.50;97.00;;;;;;5010035;28;20069;-74
2023/05/18 13:32:45;;;;;;;7.50;2.20;;;20.70;96.90;;;;;;5009685;28;20037;-76
2023/05/18 13:35:12;;;;;;;4.63;1.90;;;20.90;96.50;;;;;;5012790;28;20037;-76
2023/05/18 13:37:38;;;;;;;5.80;2.22;;;20.70;96.60;;;;;;5013353;28;20103;-75
2023/05/18 13:40:04;;;;;;;6.93;2.40;;;20.60;96.70;;;;;;5011567;28;20033;-72
2023/05/18 13:42:30;;;;;;;4.65;2.00;;;20.30;97.00;;;;;;5013012;28;20033;-76
2023/05/18 13:44:55;;;;;;;5.13;2.00;;;19.80;97.30;;;;;;5014078;28;20489;-75
2023/05/18 13:47:21;;;;;;;7.82;2.30;;;19.60;97.40;;;;;;5008363;28;20052;-76
2023/05/18 13:49:47;;;;;;;6.50;2.30;;;19.60;97.50;;;;;;5031257;28;20045;-77
2023/05/18 13:52:12;;;;;;;7.95;2.40;;;19.90;97.70;;;;;;5014326;28;20041;-76